Time;durP1;ratioP1;P1;durP2;ratioP2;P2;SDS_P1;SDS_P2;PMS_P1;PMS_P2;Temp;Humidity;BMP_temperature;BMP_pressure;BME280_temperature;BME280_humidity;BME280_pressure;Samples;Min_cycle;Max_cycle;Signal;HPM_P1;HPM_P2
2021/01/16 00:01:22;;;;;;;0.40;0.30;;;;;;;-0.73;67.25;102090.50;5075041;28;20497;-64
2021/01/16 00:03:48;;;;;;;2.05;1.95;;;;;;;-0.67;67.26;102084.41;5074816;28;20227;-64
2021/01/16 00:06:14;;;;;;;0.40;0.30;;;;;;;-0.65;66.43;102087.72;5074848;28;20227;-65
2021/01/16 00:08:42;;;;;;;0.40;0.30;;;;;;;-0.66;67.25;102081.56;5075075;28;20437;-64
2021/01/16 00:11:09;;;;;;;0.40;0.30;;;;;;;-0.63;67.29;102091.00;5075254;28;20242;-65
2021/01/16 00:13:35;;;;;;;0.40;0.30;;;;;;;-0.62;66.64;102079.34;5074758;28;20465;-65
2021/01/16 00:16:02;;;;;;;0.40;0.30;;;;;;;-0.68;67.22;102090.75;5075019;28;20265;-65
2021/01/16 00:18:28;;;;;;;0.40;0.30;;;;;;;-0.72;66.80;102090.28;5074859;28;20269;-65
2021/01/16 00:20:56;;;;;;;0.40;0.30;;;;;;;-0.76;67.14;102089.84;5074895;28;20203;-65
2021/01/16 00:23:23;;;;;;;0.40;0.30;;;;;;;-0.71;67.15;102091.94;5074375;28;20727;-64
2021/01/16 00:25:50;;;;;;;0.40;0.30;;;;;;;-0.74;66.67;102088.84;5073996;28;20483;-65
2021/01/16 00:28:19;;;;;;;1.90;1.80;;;;;;;-0.74;67.69;102083.53;5074712;28;20690;-65
2021/01/16 00:30:46;;;;;;;0.40;0.30;;;;;;;-0.80;66.80;102085.94;5074275;28;20210;-65
2021/01/16 00:33:17;;;;;;;0.40;0.30;;;;;;;-0.78;66.67;102083.91;5074239;28;20224;-65
2021/01/16 00:35:43;;;;;;;0.40;0.30;;;;;;;-0.81;67.01;102078.13;5074155;28;20576;-65
2021/01/16 00:38:10;;;;;;;0.40;0.30;;;;;;;-0.78;66.97;102080.41;5074478;28;20219;-65
2021/01/16 00:40:37;;;;;;;0.40;0.30;;;;;;;-0.80;67.20;102080.63;5074439;28;20203;-65
2021/01/16 00:43:06;;;;;;;0.88;0.60;;;;;;;-0.78;67.28;102075.09;5074045;28;21046;-65
2021/01/16 00:45:33;;;;;;;0.60;0.60;;;;;;;-0.79;66.27;102082.25;5074309;28;20203;-65
2021/01/16 00:48:06;;;;;;;0.40;0.30;;;;;;;-0.87;66.67;102074.41;5074378;28;20250;-65
2021/01/16 00:50:33;;;;;;;2.08;1.17;;;;;;;-0.86;67.28;102076.03;5074355;28;20183;-65
2021/01/16 00:52:59;;;;;;;0.40;0.30;;;;;;;-0.83;67.05;102074.84;5073839;28;20251;-65
2021/01/16 00:55:26;;;;;;;0.40;0.30;;;;;;;-0.82;67.01;102074.66;5074113;28;20235;-65
2021/01/16 00:57:53;;;;;;;0.40;0.30;;;;;;;-0.79;68.08;102070.78;5073756;28;21017;-65
2021/01/16 01:00:22;;;;;;;0.40;0.30;;;;;;;-0.78;67.79;102075.91;5074176;28;20288;-65
2021/01/16 01:02:49;;;;;;;0.40;0.30;;;;;;;-0.74;67.91;102075.56;5073525;28;20761;-65
2021/01/16 01:05:18;;;;;;;0.40;0.30;;;;;;;-0.75;67.17;102069.41;5074051;28;20292;-65
2021/01/16 01:07:46;;;;;;;0.40;0.30;;;;;;;-0.76;67.62;102071.22;5073924;28;20200;-65
2021/01/16 01:10:13;;;;;;;0.40;0.30;;;;;;;-0.72;68.55;102063.69;5073910;28;20441;-64
2021/01/16 01:12:39;;;;;;;0.40;0.30;;;;;;;-0.67;68.01;102063.13;5073758;28;20276;-65
2021/01/16 01:15:07;;;;;;;0.40;0.30;;;;;;;-0.67;67.46;102069.25;5073477;28;20441;-65
2021/01/16 01:17:33;;;;;;;1.25;0.60;;;;;;;-0.67;67.40;102071.09;5073912;28;20226;-64
2021/01/16 01:20:00;;;;;;;0.40;0.30;;;;;;;-0.70;67.09;102069.66;5073927;28;20195;-64
2021/01/16 01:22:30;;;;;;;0.40;0.30;;;;;;;-0.76;67.63;102081.03;5073908;28;20234;-64
2021/01/16 01:24:57;;;;;;;0.40;0.30;;;;;;;-0.73;68.37;102082.50;5073696;28;20584;-64
2021/01/16 01:27:23;;;;;;;0.40;0.30;;;;;;;-0.73;68.28;102090.50;5073358;28;20206;-64
2021/01/16 01:29:50;;;;;;;0.40;0.30;;;;;;;-0.71;68.59;102083.94;5073353;28;20256;-64
2021/01/16 01:32:16;;;;;;;3.43;0.97;;;;;;;-0.71;67.69;102085.78;5073535;28;20258;-64
2021/01/16 01:34:42;;;;;;;0.50;0.40;;;;;;;-0.75;67.84;102082.72;5073539;28;20464;-64
2021/01/16 01:37:09;;;;;;;0.40;0.30;;;;;;;-0.74;68.04;102087.00;5073390;28;20437;-65
2021/01/16 01:39:35;;;;;;;0.40;0.30;;;;;;;-0.76;68.54;102079.19;5073776;28;20210;-64
2021/01/16 01:42:01;;;;;;;0.40;0.30;;;;;;;-0.75;69.55;102069.41;5073581;28;20484;-64
2021/01/16 01:44:28;;;;;;;0.40;0.35;;;;;;;-0.69;69.75;102070.47;5073785;28;20203;-64
2021/01/16 01:46:54;;;;;;;1.08;0.52;;;;;;;-0.76;68.73;102079.19;5073281;28;20234;-64
2021/01/16 01:49:20;;;;;;;0.40;0.30;;;;;;;-0.82;68.43;102072.00;5073110;28;20203;-63
2021/01/16 01:51:47;;;;;;;0.40;0.30;;;;;;;-0.82;68.90;102073.81;5073376;28;20237;-64
2021/01/16 01:54:17;;;;;;;0.40;0.30;;;;;;;-0.80;69.16;102072.63;5073303;28;20257;-65
2021/01/16 01:56:45;;;;;;;0.40;0.30;;;;;;;-0.88;69.37;102075.41;5072710;28;20206;-64
2021/01/16 01:59:13;;;;;;;0.40;0.30;;;;;;;-0.93;70.19;102059.19;5073308;28;20254;-64
2021/01/16 02:01:50;;;;;;;0.40;0.30;;;;;;;-0.95;69.42;102058.53;5072334;28;20978;-65
2021/01/16 02:04:17;;;;;;;0.40;0.30;;;;;;;-0.95;69.26;102065.72;5073231;28;20596;-64
2021/01/16 02:06:44;;;;;;;0.40;0.30;;;;;;;-1.08;70.65;102063.72;5073004;28;20199;-65
2021/01/16 02:09:10;;;;;;;1.42;1.33;;;;;;;-1.03;70.36;102056.00;5072887;28;20930;-65
2021/01/16 02:11:37;;;;;;;0.40;0.30;;;;;;;-1.05;71.28;102055.38;5073301;28;20232;-65
2021/01/16 02:14:04;;;;;;;0.40;0.30;;;;;;;-1.14;71.76;102054.66;5073112;28;20223;-65
2021/01/16 02:16:39;;;;;;;0.40;0.30;;;;;;;-1.05;71.19;102060.69;5073136;28;20253;-64
2021/01/16 02:19:07;;;;;;;1.25;1.15;;;;;;;-1.07;71.63;102060.03;5073134;28;20203;-65
2021/01/16 02:21:37;;;;;;;0.40;0.30;;;;;;;-1.04;72.33;102052.53;5073961;28;20554;-65
2021/01/16 02:24:08;;;;;;;0.40;0.30;;;;;;;-1.04;72.39;102044.53;5073646;28;20457;-64
2021/01/16 02:26:59;;;;;;;0.40;0.30;;;;;;;-1.03;72.72;102051.50;5073511;28;20223;-65
2021/01/16 02:29:27;;;;;;;0.40;0.30;;;;;;;-1.02;73.69;102049.66;5073167;28;20911;-64
2021/01/16 02:31:58;;;;;;;0.40;0.30;;;;;;;-1.00;73.26;102044.19;5072812;28;20449;-65
2021/01/16 02:34:34;;;;;;;0.40;0.30;;;;;;;-0.96;73.33;102038.28;5073020;28;20652;-64
2021/01/16 02:37:27;;;;;;;0.40;0.40;;;;;;;-1.00;73.76;102038.84;5073118;28;20226;-64
2021/01/16 02:40:06;;;;;;;0.40;0.30;;;;;;;-1.14;74.38;102048.53;5073069;28;20194;-64
2021/01/16 02:42:53;;;;;;;0.40;0.30;;;;;;;-1.12;75.31;102039.34;5073104;28;20457;-64
2021/01/16 02:45:25;;;;;;;0.65;0.65;;;;;;;-1.16;75.23;102031.91;5073026;28;20191;-65
2021/01/16 02:48:01;;;;;;;0.40;0.30;;;;;;;-1.12;75.93;102035.84;5073203;28;20226;-65
2021/01/16 02:50:28;;;;;;;0.40;0.30;;;;;;;-1.11;75.86;102034.84;5075633;28;20184;-64
2021/01/16 02:52:58;;;;;;;0.40;0.30;;;;;;;-1.12;76.37;102036.69;5086075;22;20225;-77
2021/01/16 02:55:24;;;;;;;0.40;0.30;;;;;;;-1.22;76.73;102022.06;5077087;28;20550;-77
2021/01/16 02:57:50;;;;;;;0.40;0.30;;;;;;;-1.14;77.87;102027.25;5076818;28;20481;-77
2021/01/16 03:00:19;;;;;;;0.40;0.30;;;;;;;-1.09;78.37;102027.50;5076418;28;20929;-77
2021/01/16 03:02:46;;;;;;;0.40;0.30;;;;;;;-1.00;77.59;102025.56;5077103;28;20449;-76
2021/01/16 03:05:12;;;;;;;0.40;0.40;;;;;;;-0.90;78.26;102020.75;5076971;28;20207;-76
2021/01/16 03:07:42;;;;;;;0.40;0.30;;;;;;;-0.82;77.82;102026.78;5076823;28;21016;-76
2021/01/16 03:10:11;;;;;;;0.40;0.30;;;;;;;-0.86;77.18;102017.53;5077028;28;20226;-76
2021/01/16 03:12:38;;;;;;;0.40;0.30;;;;;;;-0.88;78.15;102021.41;5077071;28;20203;-76
2021/01/16 03:15:07;;;;;;;0.70;0.70;;;;;;;-1.00;78.40;102020.25;5076882;28;20453;-76
2021/01/16 03:17:48;;;;;;;0.40;0.30;;;;;;;-0.91;78.15;102025.25;5076502;28;20976;-76
2021/01/16 03:20:18;;;;;;;0.50;0.47;;;;;;;-0.88;78.58;102022.22;5076771;28;20206;-76
2021/01/16 03:22:45;;;;;;;3.23;0.90;;;;;;;-0.89;78.56;102022.38;5077053;28;20441;-76
2021/01/16 03:25:12;;;;;;;0.40;0.30;;;;;;;-0.88;78.18;102024.06;5076364;28;20433;-76
2021/01/16 03:27:38;;;;;;;1.45;1.35;;;;;;;-0.91;79.06;102019.94;5076654;28;20231;-75
2021/01/16 03:30:06;;;;;;;0.50;0.40;;;;;;;-0.95;78.98;102007.19;5076852;28;20583;-76
2021/01/16 03:32:32;;;;;;;0.40;0.30;;;;;;;-0.97;80.77;102015.38;5076583;28;20199;-76
2021/01/16 03:34:59;;;;;;;0.50;0.43;;;;;;;-0.90;81.49;102013.59;5076316;28;20445;-76
2021/01/16 03:37:25;;;;;;;0.40;0.30;;;;;;;-0.81;81.07;102008.97;5076010;28;20464;-76
2021/01/16 03:39:52;;;;;;;0.40;0.30;;;;;;;-0.79;80.72;102005.13;5076050;28;20433;-76
2021/01/16 03:42:18;;;;;;;0.40;0.30;;;;;;;-0.78;81.05;102006.75;5076321;28;20206;-76
2021/01/16 03:44:45;;;;;;;3.63;0.50;;;;;;;-0.80;80.27;102002.63;5076497;28;20232;-76
2021/01/16 03:47:11;;;;;;;0.40;0.30;;;;;;;-0.82;80.39;102000.16;5076407;28;20461;-76
2021/01/16 03:49:37;;;;;;;0.40;0.30;;;;;;;-0.90;81.30;101997.63;5076105;28;20442;-76
2021/01/16 03:52:05;;;;;;;0.40;0.30;;;;;;;-0.89;81.37;102004.59;5076115;28;20437;-77
2021/01/16 03:54:31;;;;;;;0.40;0.30;;;;;;;-0.99;81.60;102000.63;5075454;28;20481;-75
2021/01/16 03:56:58;;;;;;;0.40;0.30;;;;;;;-0.95;82.09;101997.38;5075797;28;20730;-76
2021/01/16 03:59:24;;;;;;;0.40;0.30;;;;;;;-0.87;82.19;101988.47;5075886;28;20227;-76
2021/01/16 04:01:51;;;;;;;0.40;0.30;;;;;;;-0.86;82.81;101985.59;5074699;28;20207;-76
2021/01/16 04:04:17;;;;;;;0.55;0.52;;;;;;;-0.91;82.62;101988.03;5075876;28;20202;-76
2021/01/16 04:06:43;;;;;;;1.33;1.23;;;;;;;-0.85;82.36;101992.56;5075625;28;20219;-76
2021/01/16 04:09:11;;;;;;;0.40;0.40;;;;;;;-0.85;82.38;101994.41;5075792;28;20541;-76
2021/01/16 04:11:37;;;;;;;1.10;0.93;;;;;;;-0.96;82.10;101984.28;5075247;28;20195;-76
2021/01/16 04:14:04;;;;;;;0.40;0.30;;;;;;;-0.97;82.10;101978.16;5075760;28;20450;-76
2021/01/16 04:16:30;;;;;;;0.40;0.30;;;;;;;-0.93;82.86;101970.59;5075524;28;20223;-76
2021/01/16 04:18:57;;;;;;;0.40;0.30;;;;;;;-0.91;82.57;101972.06;5075471;28;20599;-76
2021/01/16 04:21:23;;;;;;;0.40;0.30;;;;;;;-0.88;83.13;101966.38;5075373;28;20206;-76
2021/01/16 04:23:49;;;;;;;0.83;0.83;;;;;;;-0.83;83.28;101969.28;5075747;28;20466;-76
2021/01/16 04:26:17;;;;;;;0.40;0.30;;;;;;;-0.81;83.55;101969.06;5075252;28;20884;-76
2021/01/16 04:28:43;;;;;;;0.40;0.30;;;;;;;-0.76;83.95;101969.31;5075339;28;20195;-76
2021/01/16 04:31:09;;;;;;;0.40;0.30;;;;;;;-0.73;83.89;101960.97;5075346;28;20209;-76
2021/01/16 04:33:35;;;;;;;0.40;0.30;;;;;;;-0.69;83.78;101958.75;5075134;28;20815;-76
2021/01/16 04:36:02;;;;;;;0.40;0.30;;;;;;;-0.71;83.53;101960.75;5074937;28;20597;-76
2021/01/16 04:38:28;;;;;;;0.40;0.30;;;;;;;-0.75;83.34;101963.00;5075283;28;20555;-76
2021/01/16 04:40:55;;;;;;;0.40;0.30;;;;;;;-0.80;83.73;101955.59;5075056;28;20202;-76
2021/01/16 04:43:22;;;;;;;0.40;0.30;;;;;;;-0.74;84.64;101958.50;5074908;28;20199;-76
2021/01/16 04:45:50;;;;;;;2.60;0.63;;;;;;;-0.70;84.71;101946.47;5075085;28;20946;-76
2021/01/16 04:48:18;;;;;;;0.40;0.30;;;;;;;-0.68;84.44;101949.75;5074881;28;20954;-76
2021/01/16 04:50:49;;;;;;;0.40;0.30;;;;;;;-0.71;84.21;101950.13;5074788;28;20942;-76
2021/01/16 04:53:18;;;;;;;0.40;0.30;;;;;;;-0.71;84.69;101956.25;5075143;28;20449;-76
2021/01/16 04:55:45;;;;;;;0.40;0.30;;;;;;;-0.80;84.97;101952.09;5074549;28;20596;-76
2021/01/16 04:58:11;;;;;;;0.40;0.30;;;;;;;-0.77;86.12;101957.84;5074963;28;20227;-76
2021/01/16 05:00:40;;;;;;;0.40;0.30;;;;;;;-0.76;86.15;101946.19;5075130;28;20429;-76
2021/01/16 05:03:08;;;;;;;0.40;0.30;;;;;;;-0.75;86.29;101944.38;5075028;28;20199;-76
2021/01/16 05:05:37;;;;;;;0.57;0.55;;;;;;;-0.69;85.81;101950.78;5074775;28;20206;-76
2021/01/16 05:08:04;;;;;;;0.50;0.47;;;;;;;-0.63;85.52;101947.31;5074649;28;20727;-76
2021/01/16 05:10:37;;;;;;;0.40;0.30;;;;;;;-0.58;85.14;101947.56;5074518;28;20449;-76
2021/01/16 05:13:14;;;;;;;0.70;0.57;;;;;;;-0.62;84.99;101947.16;5074574;28;20184;-76
2021/01/16 05:15:42;;;;;;;0.40;0.30;;;;;;;-0.69;84.89;101940.94;5074384;28;20556;-77
2021/01/16 05:18:11;;;;;;;0.40;0.30;;;;;;;-0.72;85.26;101948.47;5074373;28;20496;-76
2021/01/16 05:20:40;;;;;;;0.40;0.30;;;;;;;-0.72;85.59;101948.47;5074108;28;20441;-76
2021/01/16 05:23:13;;;;;;;0.40;0.30;;;;;;;-0.71;86.03;101952.78;5074528;28;20634;-76
2021/01/16 05:25:41;;;;;;;0.40;0.30;;;;;;;-0.66;86.72;101945.88;5074059;28;20198;-76
2021/01/16 05:28:08;;;;;;;1.77;0.68;;;;;;;-0.69;86.47;101943.59;5074164;28;20203;-76
2021/01/16 05:30:47;;;;;;;0.40;0.30;;;;;;;-0.64;86.33;101951.81;5074159;28;20207;-76
2021/01/16 05:33:14;;;;;;;0.40;0.30;;;;;;;-0.62;85.70;101938.31;5073960;28;20656;-76
2021/01/16 05:35:40;;;;;;;0.40;0.30;;;;;;;-0.61;85.68;101929.34;5074125;28;20437;-76
2021/01/16 05:38:07;;;;;;;0.40;0.20;;;;;;;-0.59;85.92;101933.44;5073728;28;20696;-76
2021/01/16 05:40:35;;;;;;;0.90;0.90;;;;;;;-0.58;86.00;101931.59;5074041;28;20446;-75
2021/01/16 05:43:02;;;;;;;0.40;0.30;;;;;;;-0.60;85.56;101926.47;5073783;28;20441;-75
2021/01/16 05:45:33;;;;;;;3.47;1.27;;;;;;;-0.59;85.52;101929.97;5073771;28;20218;-76
2021/01/16 05:48:02;;;;;;;0.40;0.30;;;;;;;-0.65;85.79;101928.09;5074085;28;20461;-76
2021/01/16 05:50:28;;;;;;;0.60;0.60;;;;;;;-0.64;85.58;101924.41;5073768;28;20445;-76
2021/01/16 05:52:55;;;;;;;0.50;0.38;;;;;;;-0.62;85.95;101922.34;5073897;28;20461;-76
2021/01/16 05:55:23;;;;;;;0.50;0.47;;;;;;;-0.69;85.85;101918.84;5073691;28;20181;-76
2021/01/16 05:57:49;;;;;;;0.40;0.30;;;;;;;-0.75;86.23;101920.44;5073338;28;20273;-75
2021/01/16 06:00:23;;;;;;;0.40;0.30;;;;;;;-0.69;85.61;101916.19;5073824;28;20451;-76
2021/01/16 06:02:51;;;;;;;0.70;0.50;;;;;;;-0.68;85.45;101915.16;5073522;28;20637;-76
2021/01/16 06:05:23;;;;;;;0.40;0.30;;;;;;;-0.70;85.79;101911.88;5073844;28;20202;-76
2021/01/16 06:07:52;;;;;;;4.38;2.08;;;;;;;-0.76;85.84;101911.63;5073412;28;20218;-76
2021/01/16 06:10:20;;;;;;;0.40;0.30;;;;;;;-0.70;86.32;101915.38;5073630;28;20578;-76
2021/01/16 06:12:47;;;;;;;0.40;0.30;;;;;;;-0.69;85.16;101914.34;5073670;28;20276;-76
2021/01/16 06:15:15;;;;;;;0.40;0.30;;;;;;;-0.66;85.33;101902.50;5073673;28;20477;-76
2021/01/16 06:17:46;;;;;;;0.40;0.30;;;;;;;-0.65;85.63;101901.47;5073390;28;20227;-76
2021/01/16 06:20:18;;;;;;;0.40;0.30;;;;;;;-0.61;85.86;101900.91;5073667;28;20504;-76
2021/01/16 06:22:49;;;;;;;1.90;0.88;;;;;;;-0.62;84.64;101903.72;5073313;28;20294;-75
2021/01/16 06:25:21;;;;;;;0.50;0.50;;;;;;;-0.63;85.32;101894.94;5076229;28;20528;-76
2021/01/16 06:27:49;;;;;;;0.40;0.30;;;;;;;-0.54;84.49;101898.25;5077376;28;20225;-76
2021/01/16 06:30:17;;;;;;;0.40;0.30;;;;;;;-0.52;83.89;101898.91;5077134;28;20202;-76
2021/01/16 06:32:47;;;;;;;2.05;0.95;;;;;;;-0.59;84.14;101901.50;5077414;28;20207;-76
2021/01/16 06:35:15;;;;;;;0.40;0.30;;;;;;;-0.51;84.59;101905.88;5077326;28;20735;-76
2021/01/16 06:37:46;;;;;;;1.80;0.60;;;;;;;-0.47;84.07;101898.31;5076817;28;20731;-76
2021/01/16 06:40:15;;;;;;;0.70;0.70;;;;;;;-0.45;83.89;101905.06;5077336;28;20793;-76
2021/01/16 06:42:41;;;;;;;0.40;0.30;;;;;;;-0.53;83.53;101898.09;5077188;28;20492;-76
2021/01/16 06:45:09;;;;;;;0.40;0.30;;;;;;;-0.58;83.54;101897.00;5077074;28;20194;-76
2021/01/16 06:47:37;;;;;;;0.40;0.30;;;;;;;-0.62;84.34;101904.59;5076932;28;20727;-75
2021/01/16 06:50:05;;;;;;;0.75;0.75;;;;;;;-0.61;83.88;101900.09;5077210;28;20206;-76
2021/01/16 06:52:33;;;;;;;0.40;0.30;;;;;;;-0.60;84.40;101905.19;5077143;28;20257;-76
2021/01/16 06:55:03;;;;;;;0.50;0.50;;;;;;;-0.61;84.09;101895.56;5077215;28;20414;-76
2021/01/16 06:57:30;;;;;;;0.40;0.30;;;;;;;-0.61;83.40;101886.78;5077034;28;20461;-77
2021/01/16 06:59:59;;;;;;;0.40;0.30;;;;;;;-0.57;83.57;101893.34;5076734;28;20477;-76
2021/01/16 07:02:28;;;;;;;1.40;0.82;;;;;;;-0.54;83.50;101887.63;5077088;28;20456;-76
2021/01/16 07:04:56;;;;;;;0.40;0.30;;;;;;;-0.59;83.76;101885.53;5076794;28;20211;-76
2021/01/16 07:07:33;;;;;;;0.40;0.40;;;;;;;-0.52;83.13;101888.28;5076495;28;20600;-76
2021/01/16 07:10:04;;;;;;;0.40;0.30;;;;;;;-0.53;83.62;101881.31;5076860;28;20187;-76
2021/01/16 07:12:31;;;;;;;0.40;0.30;;;;;;;-0.52;83.26;101881.09;5076749;28;20792;-76
2021/01/16 07:14:57;;;;;;;0.40;0.30;;;;;;;-0.54;83.60;101882.31;5076788;28;20587;-76
2021/01/16 07:17:25;;;;;;;0.40;0.30;;;;;;;-0.54;82.86;101885.78;5076568;28;20977;-76
2021/01/16 07:19:52;;;;;;;0.80;0.50;;;;;;;-0.51;83.15;101884.59;5076422;28;20530;-76
2021/01/16 07:22:18;;;;;;;5.83;1.37;;;;;;;-0.53;83.13;101884.78;5076615;28;20441;-76
2021/01/16 07:24:45;;;;;;;0.40;0.30;;;;;;;-0.61;83.65;101900.09;5076578;28;20433;-76
2021/01/16 07:27:13;;;;;;;0.40;0.40;;;;;;;-0.68;84.01;101894.69;5075874;28;20227;-76
2021/01/16 07:29:40;;;;;;;0.40;0.40;;;;;;;-0.68;84.05;101901.84;5076496;28;20202;-76
2021/01/16 07:32:15;;;;;;;0.40;0.30;;;;;;;-0.71;83.61;101896.91;5076518;28;20207;-77
2021/01/16 07:34:49;;;;;;;0.70;0.70;;;;;;;-0.68;84.51;101891.22;5082081;28;20467;-77
2021/01/16 07:37:17;;;;;;;1.73;0.52;;;;;;;-0.66;84.49;101892.69;5076290;28;20468;-77
2021/01/16 07:39:44;;;;;;;0.40;0.30;;;;;;;-0.61;84.44;101889.44;5076321;28;20258;-77
2021/01/16 07:42:14;;;;;;;0.40;0.30;;;;;;;-0.58;84.38;101879.19;5076679;28;20210;-77
2021/01/16 07:44:45;;;;;;;0.40;0.30;;;;;;;-0.61;84.18;101882.28;5076255;28;20441;-77
2021/01/16 07:47:20;;;;;;;0.40;0.30;;;;;;;-0.61;84.42;101882.28;5075976;28;20238;-76
2021/01/16 07:49:54;;;;;;;0.82;0.65;;;;;;;-0.59;84.00;101882.06;5076146;28;20442;-76
2021/01/16 07:52:27;;;;;;;0.40;0.30;;;;;;;-0.59;84.06;101876.75;5076113;28;20645;-77
2021/01/16 07:55:08;;;;;;;0.50;0.50;;;;;;;-0.68;84.36;101885.91;5076137;28;20426;-77
2021/01/16 07:57:35;;;;;;;0.60;0.50;;;;;;;-0.66;84.44;101873.25;5075808;28;20473;-77
2021/01/16 08:00:06;;;;;;;0.40;0.30;;;;;;;-0.62;84.27;101872.66;5076230;28;20477;-77
2021/01/16 08:02:35;;;;;;;0.40;0.30;;;;;;;-0.61;84.86;101876.13;5076164;28;20192;-77
2021/01/16 08:05:25;;;;;;;4.97;0.60;;;;;;;-0.60;84.48;101872.44;5076493;28;20250;-77
2021/01/16 08:08:14;;;;;;;1.17;1.08;;;;;;;-0.54;84.40;101885.78;5065296;28;20226;-77
2021/01/16 08:10:43;;;;;;;0.40;0.30;;;;;;;-0.53;83.84;101865.34;5075993;28;20281;-77
2021/01/16 08:13:11;;;;;;;0.40;0.30;;;;;;;-0.50;83.67;101867.59;5075561;28;20919;-77
2021/01/16 08:15:42;;;;;;;0.40;0.30;;;;;;;-0.51;84.16;101865.94;5075749;28;20448;-78
2021/01/16 08:18:17;;;;;;;0.50;0.50;;;;;;;-0.52;84.11;101875.78;5075728;28;20999;-78
2021/01/16 08:20:46;;;;;;;0.40;0.30;;;;;;;-0.53;83.80;101874.16;5076193;28;20189;-77
2021/01/16 08:23:22;;;;;;;0.40;0.30;;;;;;;-0.53;84.18;101865.34;5075536;28;20309;-77
2021/01/16 08:25:48;;;;;;;0.40;0.30;;;;;;;-0.49;84.20;101879.06;5075607;28;20203;-77
2021/01/16 08:28:24;;;;;;;0.40;0.30;;;;;;;-0.54;84.25;101861.84;5075570;28;20203;-77
2021/01/16 08:30:50;;;;;;;2.40;1.60;;;;;;;-0.48;83.70;101870.06;5075179;28;20429;-77
2021/01/16 08:33:17;;;;;;;1.05;0.70;;;;;;;-0.46;83.52;101862.69;5075539;28;20525;-77
2021/01/16 08:35:45;;;;;;;0.40;0.30;;;;;;;-0.47;83.22;101856.56;5076103;28;20225;-77
2021/01/16 08:38:25;;;;;;;0.60;0.50;;;;;;;-0.59;83.83;101858.13;5075171;28;20227;-77
2021/01/16 08:40:55;;;;;;;0.40;0.30;;;;;;;-0.52;83.98;101851.00;5075165;28;20211;-77
2021/01/16 08:43:35;;;;;;;0.40;0.30;;;;;;;-0.45;83.70;101846.53;5075165;28;20179;-77
2021/01/16 08:46:15;;;;;;;0.50;0.40;;;;;;;-0.47;83.31;101851.25;5074914;28;20252;-77
2021/01/16 08:48:56;;;;;;;0.40;0.30;;;;;;;-0.41;83.60;101853.09;5074335;28;20199;-77
2021/01/16 08:51:36;;;;;;;0.40;0.30;;;;;;;-0.41;83.57;101846.97;5074742;28;20194;-77
2021/01/16 08:54:14;;;;;;;0.40;0.30;;;;;;;-0.47;83.08;101848.59;5075004;28;20214;-77
2021/01/16 08:56:42;;;;;;;0.40;0.30;;;;;;;-0.40;83.04;101840.63;5074553;28;20215;-77
2021/01/16 08:59:20;;;;;;;0.40;0.30;;;;;;;-0.37;83.08;101841.03;5074612;28;20886;-77
2021/01/16 09:01:48;;;;;;;0.40;0.30;;;;;;;-0.37;83.00;101838.38;5074814;28;20210;-77
2021/01/16 09:04:25;;;;;;;1.02;0.65;;;;;;;-0.29;82.57;101832.09;5076006;28;20207;-77
2021/01/16 09:06:52;;;;;;;0.40;0.30;;;;;;;-0.31;82.68;101836.75;5074982;28;20214;-78
2021/01/16 09:09:26;;;;;;;0.40;0.30;;;;;;;-0.24;82.15;101839.47;5075275;28;20671;-77
2021/01/16 09:12:04;;;;;;;0.93;0.60;;;;;;;-0.25;81.93;101836.00;5075103;28;20202;-78
2021/01/16 09:14:31;;;;;;;0.40;0.30;;;;;;;-0.30;82.33;101847.25;5075717;28;20441;-78
2021/01/16 09:17:13;;;;;;;0.40;0.30;;;;;;;-0.30;82.06;101843.75;5075526;28;20211;-78
2021/01/16 09:19:40;;;;;;;0.40;0.40;;;;;;;-0.29;81.82;101846.22;5074843;28;20468;-78
2021/01/16 09:22:19;;;;;;;0.50;0.50;;;;;;;-0.33;82.07;101847.63;5075666;28;20433;-77
2021/01/16 09:24:46;;;;;;;3.30;0.75;;;;;;;-0.34;82.31;101848.66;5074893;28;20199;-78
2021/01/16 09:27:27;;;;;;;0.82;0.60;;;;;;;-0.32;82.01;101843.94;5075355;28;20215;-77
2021/01/16 09:29:56;;;;;;;0.40;0.30;;;;;;;-0.22;82.06;101848.06;5074531;28;20542;-77
2021/01/16 09:32:31;;;;;;;1.13;0.60;;;;;;;-0.14;82.43;101837.25;5074118;28;20453;-78
2021/01/16 09:34:57;;;;;;;0.40;0.30;;;;;;;-0.11;81.81;101842.19;5074950;28;20449;-77
2021/01/16 09:37:25;;;;;;;0.40;0.30;;;;;;;-0.06;81.65;101839.75;5074994;28;20280;-78
2021/01/16 09:40:03;;;;;;;0.40;0.30;;;;;;;-0.03;81.51;101836.69;5075349;28;20480;-78
2021/01/16 09:42:30;;;;;;;0.50;0.50;;;;;;;0.02;80.71;101836.91;5074969;28;20433;-78
2021/01/16 09:44:58;;;;;;;0.40;0.30;;;;;;;0.05;80.43;101833.03;5075625;28;20242;-78
2021/01/16 09:47:44;;;;;;;0.40;0.40;;;;;;;0.08;80.08;101829.97;5074830;28;20226;-78
2021/01/16 09:50:12;;;;;;;0.73;0.73;;;;;;;0.01;79.65;101829.94;5074766;28;20210;-78
2021/01/16 09:52:53;;;;;;;0.50;0.50;;;;;;;0.03;80.25;101827.06;5074124;28;20438;-78
2021/01/16 09:55:32;;;;;;;0.88;0.73;;;;;;;0.07;80.21;101825.66;5074551;28;20199;-78
2021/01/16 09:58:00;;;;;;;1.40;1.13;;;;;;;0.09;80.02;101828.94;5074561;28;20227;-77
2021/01/16 10:00:29;;;;;;;0.40;0.30;;;;;;;0.13;79.51;101815.00;5074694;28;20203;-77
2021/01/16 10:03:02;;;;;;;0.40;0.30;;;;;;;0.13;79.75;101819.50;5072941;28;20600;-78
2021/01/16 10:05:33;;;;;;;0.40;0.30;;;;;;;0.17;79.55;101815.44;5073901;28;20195;-78
2021/01/16 10:08:00;;;;;;;0.40;0.30;;;;;;;0.15;79.57;101809.50;5074944;28;20469;-77
2021/01/16 10:10:27;;;;;;;0.60;0.57;;;;;;;0.19;79.56;101808.88;5074689;28;20210;-78
2021/01/16 10:13:00;;;;;;;0.40;0.40;;;;;;;0.17;79.08;101807.44;5074108;28;20452;-77
2021/01/16 10:15:30;;;;;;;0.40;0.30;;;;;;;0.09;77.85;101797.81;5074993;28;20449;-78
2021/01/16 10:17:57;;;;;;;1.00;1.00;;;;;;;0.07;78.15;101797.19;5074499;28;20245;-78
2021/01/16 10:20:32;;;;;;;0.40;0.30;;;;;;;0.23;78.09;101799.47;5074577;28;20562;-78
2021/01/16 10:23:03;;;;;;;0.50;0.40;;;;;;;0.34;77.75;101799.91;5075550;28;20397;-78
2021/01/16 10:25:38;;;;;;;0.40;0.20;;;;;;;0.20;77.32;101786.56;5075251;28;20434;-78
2021/01/16 10:28:05;;;;;;;0.50;0.50;;;;;;;0.25;77.10;101786.75;5073970;28;20548;-77
2021/01/16 10:30:33;;;;;;;0.40;0.27;;;;;;;0.20;77.36;101767.91;5074462;28;20437;-78
2021/01/16 10:33:01;;;;;;;0.40;0.30;;;;;;;0.24;76.98;101774.47;5074072;28;20997;-78
2021/01/16 10:35:29;;;;;;;0.82;0.40;;;;;;;0.33;76.86;101776.94;5074714;28;20286;-78
2021/01/16 10:37:57;;;;;;;0.40;0.30;;;;;;;0.35;76.24;101774.88;5074872;28;20223;-78
2021/01/16 10:40:23;;;;;;;0.40;0.30;;;;;;;0.37;76.47;101770.19;5074559;28;20635;-78
2021/01/16 10:42:54;;;;;;;0.40;0.30;;;;;;;0.29;75.89;101770.38;5074392;28;20448;-77
2021/01/16 10:45:22;;;;;;;0.40;0.30;;;;;;;0.31;76.43;101762.97;5073991;28;20479;-78
2021/01/16 10:47:50;;;;;;;0.40;0.30;;;;;;;0.30;76.53;101762.16;5074108;28;20469;-78
2021/01/16 10:50:23;;;;;;;0.40;0.30;;;;;;;0.36;76.54;101763.22;5073861;28;20730;-77
2021/01/16 10:53:00;;;;;;;0.85;0.57;;;;;;;0.36;75.94;101757.88;5073898;28;20460;-78
2021/01/16 10:55:50;;;;;;;0.40;0.30;;;;;;;0.34;75.73;101758.06;5074396;28;20672;-78
2021/01/16 10:58:21;;;;;;;0.40;0.30;;;;;;;0.24;76.45;101761.16;5074153;28;20875;-78
2021/01/16 11:00:54;;;;;;;1.38;0.77;;;;;;;0.30;76.54;101756.03;5073904;28;20187;-78
2021/01/16 11:03:25;;;;;;;0.40;0.30;;;;;;;0.41;76.65;101748.25;5073722;28;20214;-77
2021/01/16 11:05:54;;;;;;;0.40;0.30;;;;;;;0.55;76.16;101751.72;5073635;28;20434;-78
2021/01/16 11:08:27;;;;;;;0.53;0.40;;;;;;;0.54;74.91;101742.09;5074217;28;20452;-78
2021/01/16 11:10:54;;;;;;;0.40;0.30;;;;;;;0.54;75.71;101747.44;5076279;28;20520;-78
2021/01/16 11:13:22;;;;;;;0.40;0.30;;;;;;;0.44;75.16;101744.34;5078192;28;20199;-78
2021/01/16 11:15:53;;;;;;;0.40;0.30;;;;;;;0.53;74.82;101739.63;5077947;28;20645;-78
2021/01/16 11:18:28;;;;;;;0.40;0.30;;;;;;;0.48;74.67;101737.56;5077349;28;20207;-78
2021/01/16 11:20:59;;;;;;;0.40;0.30;;;;;;;0.34;75.12;101747.41;5078140;28;20433;-78
2021/01/16 11:23:30;;;;;;;0.40;0.30;;;;;;;0.41;75.42;101740.25;5077507;28;20434;-77
2021/01/16 11:25:57;;;;;;;0.40;0.30;;;;;;;0.46;74.91;101731.66;5077600;28;20761;-78
2021/01/16 11:28:25;;;;;;;0.40;0.30;;;;;;;0.42;74.90;101730.41;5077480;28;20805;-78
2021/01/16 11:31:02;;;;;;;0.40;0.30;;;;;;;0.45;75.17;101735.34;5077433;28;20449;-78
2021/01/16 11:33:30;;;;;;;0.50;0.50;;;;;;;0.53;75.29;101729.78;5078398;28;20826;-78
2021/01/16 11:36:11;;;;;;;0.40;0.30;;;;;;;0.58;74.83;101723.84;5077376;28;20815;-77
2021/01/16 11:38:39;;;;;;;1.57;0.83;;;;;;;0.64;74.24;101726.50;5077511;28;20207;-78